Forside
METAR-TAF:

METAR-TAF

Lufthavne :

Muskegon County Airport

Muskegon, Michigan, USA

Breddekreds: 43-10-16N, længdekreds: 086-14-12W, højde: 191 m

Aktuelle vejr

Denne rapport blev lavet for 20 minutter siden, kl. 17:55 UTC
Vind 13 kt fra sydsydvest med vindstød på up til 24 kt
Temperatur 5°C
Fugtighed 65%
Tryk 1013 hPa
Sigt: 16.1 km
skyfri

METAR: KMKG 231755Z 21013G24KT 10SM CLR 05/M01 A2992 RMK AO2 SLP136 4/002 933006 T00501006 10050 20022 56005

Tid: 13:15 (18:15 UTC)

Vejrudsigter

Denne rapport blev lavet for 35 minutter siden, kl. 17:40 UTC
Foreløbig gælder fra 23 på 18 UTC til 24 på 18 UTC
Vind 14 kt fra sydsydvest med vindstød på up til 22 kt
Sigt: 10 km
skyfri
Fra 23 på 2300 UTC
Vind 9 kt fra vestsydvest
Sigt: 10 km
skyfri
Fra 24 på 1200 UTC
Vind 4 kt fra nordøst
Sigt: 10 km
Brudte skyer i en højde af 4000 ft

TAF: KMKG 231740Z 2318/2418 20014G22KT P6SM SKC FM232300 25009KT P6SM SKC FM241200 05004KT P6SM BKN040

Vejrobservationer og prognoser fra mere end 4000 lufthavne (METAR og TAF).

De gule og røde prikker repræsenterer de meteorologiske stationer.

Flyt musen over at se navnet på stationen.

Så klik over at se vejr observationer og prognoser.

At skifte det kort: Klik på de grønne knapper med et sort kors for at zoome ind; på den grønne knap med en bindestreg for at zoome ud; eller på de grønne pile for tilstødende kort.


METAR-TAF: